sensor_id;sensor_type;location;lat;lon;timestamp;P1;durP1;ratioP1;P2;durP2;ratioP2
49458;SDS011;35354;51.296;16.924;2023-04-25T00:00:39;1.98;;;1.10;;
49458;SDS011;35354;51.296;16.924;2023-04-25T00:03:04;2.42;;;1.40;;
49458;SDS011;35354;51.296;16.924;2023-04-25T00:05:31;3.08;;;1.30;;
49458;SDS011;35354;51.296;16.924;2023-04-25T00:07:57;1.25;;;1.13;;
49458;SDS011;35354;51.296;16.924;2023-04-25T00:10:23;1.65;;;1.30;;
49458;SDS011;35354;51.296;16.924;2023-04-25T00:12:48;1.25;;;1.15;;
49458;SDS011;35354;51.296;16.924;2023-04-25T00:15:14;2.58;;;1.10;;
49458;SDS011;35354;51.296;16.924;2023-04-25T00:17:40;3.15;;;1.08;;
49458;SDS011;35354;51.296;16.924;2023-04-25T00:20:05;3.47;;;1.25;;
49458;SDS011;35354;51.296;16.924;2023-04-25T00:22:34;3.03;;;1.88;;
49458;SDS011;35354;51.296;16.924;2023-04-25T00:24:59;1.10;;;1.00;;
49458;SDS011;35354;51.296;16.924;2023-04-25T00:27:25;0.93;;;0.90;;
49458;SDS011;35354;51.296;16.924;2023-04-25T00:29:51;3.03;;;1.30;;
49458;SDS011;35354;51.296;16.924;2023-04-25T00:32:17;1.70;;;1.10;;
49458;SDS011;35354;51.296;16.924;2023-04-25T00:34:42;1.70;;;1.23;;
49458;SDS011;35354;51.296;16.924;2023-04-25T00:37:07;2.30;;;1.42;;
49458;SDS011;35354;51.296;16.924;2023-04-25T00:39:32;2.63;;;1.30;;
49458;SDS011;35354;51.296;16.924;2023-04-25T00:41:58;2.22;;;1.50;;
49458;SDS011;35354;51.296;16.924;2023-04-25T00:44:24;1.70;;;1.30;;
49458;SDS011;35354;51.296;16.924;2023-04-25T00:46:51;3.83;;;1.90;;
49458;SDS011;35354;51.296;16.924;2023-04-25T00:49:17;1.77;;;1.35;;
49458;SDS011;35354;51.296;16.924;2023-04-25T00:51:43;1.45;;;1.35;;
49458;SDS011;35354;51.296;16.924;2023-04-25T00:54:10;1.73;;;1.38;;
49458;SDS011;35354;51.296;16.924;2023-04-25T00:56:36;2.72;;;1.35;;
49458;SDS011;35354;51.296;16.924;2023-04-25T00:59:02;2.28;;;1.23;;
49458;SDS011;35354;51.296;16.924;2023-04-25T01:01:28;1.50;;;1.00;;
49458;SDS011;35354;51.296;16.924;2023-04-25T01:03:54;1.33;;;1.23;;
49458;SDS011;35354;51.296;16.924;2023-04-25T01:06:19;1.40;;;1.30;;
49458;SDS011;35354;51.296;16.924;2023-04-25T01:08:44;4.07;;;1.10;;
49458;SDS011;35354;51.296;16.924;2023-04-25T01:11:10;1.15;;;1.05;;
49458;SDS011;35354;51.296;16.924;2023-04-25T01:13:35;3.13;;;1.40;;
49458;SDS011;35354;51.296;16.924;2023-04-25T01:16:01;2.13;;;1.40;;
49458;SDS011;35354;51.296;16.924;2023-04-25T01:18:27;1.65;;;1.45;;
49458;SDS011;35354;51.296;16.924;2023-04-25T01:20:53;2.60;;;1.48;;
49458;SDS011;35354;51.296;16.924;2023-04-25T01:23:20;2.38;;;1.33;;
49458;SDS011;35354;51.296;16.924;2023-04-25T01:25:45;1.48;;;1.33;;
49458;SDS011;35354;51.296;16.924;2023-04-25T01:28:12;3.65;;;1.30;;
49458;SDS011;35354;51.296;16.924;2023-04-25T01:30:38;2.85;;;1.58;;
49458;SDS011;35354;51.296;16.924;2023-04-25T01:33:04;2.47;;;1.30;;
49458;SDS011;35354;51.296;16.924;2023-04-25T01:35:30;4.20;;;1.52;;
49458;SDS011;35354;51.296;16.924;2023-04-25T01:37:57;2.65;;;1.40;;
49458;SDS011;35354;51.296;16.924;2023-04-25T01:40:22;2.88;;;1.40;;
49458;SDS011;35354;51.296;16.924;2023-04-25T01:42:49;1.63;;;1.52;;
49458;SDS011;35354;51.296;16.924;2023-04-25T01:45:16;1.60;;;1.50;;
49458;SDS011;35354;51.296;16.924;2023-04-25T01:47:42;2.72;;;1.77;;
49458;SDS011;35354;51.296;16.924;2023-04-25T01:50:09;1.80;;;1.65;;
49458;SDS011;35354;51.296;16.924;2023-04-25T01:52:36;1.67;;;1.58;;
49458;SDS011;35354;51.296;16.924;2023-04-25T01:55:01;4.47;;;2.22;;
49458;SDS011;35354;51.296;16.924;2023-04-25T01:57:27;2.90;;;1.95;;
49458;SDS011;35354;51.296;16.924;2023-04-25T01:59:57;1.90;;;1.80;;
49458;SDS011;35354;51.296;16.924;2023-04-25T02:02:24;2.70;;;1.90;;
49458;SDS011;35354;51.296;16.924;2023-04-25T02:04:51;2.50;;;1.80;;
49458;SDS011;35354;51.296;16.924;2023-04-25T02:07:16;6.25;;;2.00;;
49458;SDS011;35354;51.296;16.924;2023-04-25T02:09:41;2.33;;;2.00;;
49458;SDS011;35354;51.296;16.924;2023-04-25T02:12:07;4.40;;;2.20;;
49458;SDS011;35354;51.296;16.924;2023-04-25T02:14:34;2.63;;;2.10;;
49458;SDS011;35354;51.296;16.924;2023-04-25T02:16:59;2.47;;;2.28;;
49458;SDS011;35354;51.296;16.924;2023-04-25T02:19:24;3.20;;;2.53;;
49458;SDS011;35354;51.296;16.924;2023-04-25T02:21:50;2.95;;;2.00;;
49458;SDS011;35354;51.296;16.924;2023-04-25T02:24:15;2.85;;;2.65;;
49458;SDS011;35354;51.296;16.924;2023-04-25T02:26:40;2.83;;;2.35;;
49458;SDS011;35354;51.296;16.924;2023-04-25T02:29:06;3.05;;;2.53;;
49458;SDS011;35354;51.296;16.924;2023-04-25T02:31:32;2.45;;;2.25;;
49458;SDS011;35354;51.296;16.924;2023-04-25T02:33:57;2.83;;;2.20;;
49458;SDS011;35354;51.296;16.924;2023-04-25T02:36:22;2.72;;;2.28;;
49458;SDS011;35354;51.296;16.924;2023-04-25T02:38:48;3.42;;;2.67;;
49458;SDS011;35354;51.296;16.924;2023-04-25T02:41:15;4.32;;;2.65;;
49458;SDS011;35354;51.296;16.924;2023-04-25T02:43:40;4.20;;;3.08;;
49458;SDS011;35354;51.296;16.924;2023-04-25T02:46:05;4.53;;;2.90;;
49458;SDS011;35354;51.296;16.924;2023-04-25T02:48:31;2.75;;;2.50;;
49458;SDS011;35354;51.296;16.924;2023-04-25T02:50:56;2.95;;;2.75;;
49458;SDS011;35354;51.296;16.924;2023-04-25T02:53:21;2.55;;;2.35;;
49458;SDS011;35354;51.296;16.924;2023-04-25T02:55:47;3.40;;;3.10;;
49458;SDS011;35354;51.296;16.924;2023-04-25T02:58:12;3.30;;;3.00;;
49458;SDS011;35354;51.296;16.924;2023-04-25T03:00:37;4.13;;;2.97;;
49458;SDS011;35354;51.296;16.924;2023-04-25T03:03:03;3.30;;;3.00;;
49458;SDS011;35354;51.296;16.924;2023-04-25T03:05:28;3.78;;;3.03;;
49458;SDS011;35354;51.296;16.924;2023-04-25T03:07:53;3.50;;;3.00;;
49458;SDS011;35354;51.296;16.924;2023-04-25T03:10:19;4.63;;;3.33;;
49458;SDS011;35354;51.296;16.924;2023-04-25T03:12:44;4.85;;;3.38;;
49458;SDS011;35354;51.296;16.924;2023-04-25T03:15:09;4.10;;;2.97;;
49458;SDS011;35354;51.296;16.924;2023-04-25T03:17:35;3.75;;;3.42;;
49458;SDS011;35354;51.296;16.924;2023-04-25T03:20:00;5.45;;;4.25;;
49458;SDS011;35354;51.296;16.924;2023-04-25T03:22:25;3.97;;;3.40;;
49458;SDS011;35354;51.296;16.924;2023-04-25T03:24:51;5.68;;;4.28;;
49458;SDS011;35354;51.296;16.924;2023-04-25T03:27:17;6.18;;;3.88;;
49458;SDS011;35354;51.296;16.924;2023-04-25T03:29:42;5.00;;;4.32;;
49458;SDS011;35354;51.296;16.924;2023-04-25T03:32:08;5.80;;;3.83;;
49458;SDS011;35354;51.296;16.924;2023-04-25T03:34:33;5.05;;;4.43;;
49458;SDS011;35354;51.296;16.924;2023-04-25T03:36:59;6.15;;;4.22;;
49458;SDS011;35354;51.296;16.924;2023-04-25T03:39:24;7.88;;;4.78;;
49458;SDS011;35354;51.296;16.924;2023-04-25T03:41:50;7.18;;;4.32;;
49458;SDS011;35354;51.296;16.924;2023-04-25T03:44:15;6.75;;;4.65;;
49458;SDS011;35354;51.296;16.924;2023-04-25T03:46:40;6.10;;;4.78;;
49458;SDS011;35354;51.296;16.924;2023-04-25T03:49:06;7.25;;;4.32;;
49458;SDS011;35354;51.296;16.924;2023-04-25T03:51:31;5.80;;;4.68;;
49458;SDS011;35354;51.296;16.924;2023-04-25T03:53:57;6.07;;;4.93;;
49458;SDS011;35354;51.296;16.924;2023-04-25T03:56:22;5.40;;;4.53;;
49458;SDS011;35354;51.296;16.924;2023-04-25T03:58:47;5.43;;;4.53;;
49458;SDS011;35354;51.296;16.924;2023-04-25T04:01:13;6.75;;;5.13;;
49458;SDS011;35354;51.296;16.924;2023-04-25T04:03:38;7.70;;;5.80;;
49458;SDS011;35354;51.296;16.924;2023-04-25T04:06:04;7.50;;;5.35;;
49458;SDS011;35354;51.296;16.924;2023-04-25T04:08:31;7.57;;;6.18;;
49458;SDS011;35354;51.296;16.924;2023-04-25T04:10:57;7.07;;;5.75;;
49458;SDS011;35354;51.296;16.924;2023-04-25T04:13:25;6.20;;;5.60;;
49458;SDS011;35354;51.296;16.924;2023-04-25T04:15:51;7.55;;;5.85;;
49458;SDS011;35354;51.296;16.924;2023-04-25T04:18:16;7.15;;;5.32;;
49458;SDS011;35354;51.296;16.924;2023-04-25T04:20:41;6.53;;;5.47;;
49458;SDS011;35354;51.296;16.924;2023-04-25T04:23:07;7.93;;;6.10;;
49458;SDS011;35354;51.296;16.924;2023-04-25T04:25:32;7.80;;;6.20;;
49458;SDS011;35354;51.296;16.924;2023-04-25T04:27:57;6.68;;;5.80;;
49458;SDS011;35354;51.296;16.924;2023-04-25T04:30:24;8.23;;;5.70;;
49458;SDS011;35354;51.296;16.924;2023-04-25T04:32:50;10.07;;;5.80;;
49458;SDS011;35354;51.296;16.924;2023-04-25T04:35:16;7.68;;;5.15;;
49458;SDS011;35354;51.296;16.924;2023-04-25T04:37:42;8.98;;;5.53;;
49458;SDS011;35354;51.296;16.924;2023-04-25T04:40:08;7.97;;;5.10;;
49458;SDS011;35354;51.296;16.924;2023-04-25T04:42:34;6.57;;;5.57;;
49458;SDS011;35354;51.296;16.924;2023-04-25T04:45:01;8.30;;;5.38;;
49458;SDS011;35354;51.296;16.924;2023-04-25T04:47:27;6.60;;;5.47;;
49458;SDS011;35354;51.296;16.924;2023-04-25T04:49:56;6.88;;;6.05;;
49458;SDS011;35354;51.296;16.924;2023-04-25T04:52:21;11.00;;;6.13;;
49458;SDS011;35354;51.296;16.924;2023-04-25T04:54:46;6.65;;;5.60;;
49458;SDS011;35354;51.296;16.924;2023-04-25T04:57:12;7.90;;;5.88;;
49458;SDS011;35354;51.296;16.924;2023-04-25T04:59:37;7.30;;;6.22;;
49458;SDS011;35354;51.296;16.924;2023-04-25T05:02:03;8.23;;;6.35;;
49458;SDS011;35354;51.296;16.924;2023-04-25T05:04:28;6.13;;;5.53;;
49458;SDS011;35354;51.296;16.924;2023-04-25T05:06:53;5.38;;;4.88;;
49458;SDS011;35354;51.296;16.924;2023-04-25T05:09:19;6.75;;;5.78;;
49458;SDS011;35354;51.296;16.924;2023-04-25T05:11:44;6.10;;;5.60;;
49458;SDS011;35354;51.296;16.924;2023-04-25T05:14:09;7.10;;;5.38;;
49458;SDS011;35354;51.296;16.924;2023-04-25T05:16:35;8.25;;;5.45;;
49458;SDS011;35354;51.296;16.924;2023-04-25T05:19:00;5.95;;;5.38;;
49458;SDS011;35354;51.296;16.924;2023-04-25T05:21:25;7.25;;;6.00;;
49458;SDS011;35354;51.296;16.924;2023-04-25T05:23:53;7.68;;;6.20;;
49458;SDS011;35354;51.296;16.924;2023-04-25T05:26:19;7.07;;;5.75;;
49458;SDS011;35354;51.296;16.924;2023-04-25T05:28:45;6.38;;;5.03;;
49458;SDS011;35354;51.296;16.924;2023-04-25T05:31:11;6.85;;;5.57;;
49458;SDS011;35354;51.296;16.924;2023-04-25T05:33:37;10.02;;;6.30;;
49458;SDS011;35354;51.296;16.924;2023-04-25T05:36:02;8.43;;;5.57;;
49458;SDS011;35354;51.296;16.924;2023-04-25T05:38:28;6.47;;;4.78;;
49458;SDS011;35354;51.296;16.924;2023-04-25T05:40:53;8.35;;;5.20;;
49458;SDS011;35354;51.296;16.924;2023-04-25T05:43:18;9.32;;;5.35;;
49458;SDS011;35354;51.296;16.924;2023-04-25T05:45:44;6.40;;;5.65;;
49458;SDS011;35354;51.296;16.924;2023-04-25T05:48:09;6.32;;;5.00;;
49458;SDS011;35354;51.296;16.924;2023-04-25T05:50:34;6.10;;;4.82;;
49458;SDS011;35354;51.296;16.924;2023-04-25T05:53:00;7.05;;;5.40;;
49458;SDS011;35354;51.296;16.924;2023-04-25T05:55:25;7.47;;;4.72;;
49458;SDS011;35354;51.296;16.924;2023-04-25T05:57:50;10.25;;;5.70;;
49458;SDS011;35354;51.296;16.924;2023-04-25T06:00:16;5.35;;;4.80;;
49458;SDS011;35354;51.296;16.924;2023-04-25T06:02:41;8.40;;;4.80;;
49458;SDS011;35354;51.296;16.924;2023-04-25T06:05:07;6.03;;;4.13;;
49458;SDS011;35354;51.296;16.924;2023-04-25T06:07:33;6.45;;;4.20;;
49458;SDS011;35354;51.296;16.924;2023-04-25T06:09:58;7.45;;;4.40;;
49458;SDS011;35354;51.296;16.924;2023-04-25T06:12:25;5.82;;;4.80;;
49458;SDS011;35354;51.296;16.924;2023-04-25T06:14:51;6.03;;;4.00;;
49458;SDS011;35354;51.296;16.924;2023-04-25T06:17:16;6.18;;;4.53;;
49458;SDS011;35354;51.296;16.924;2023-04-25T06:19:41;6.40;;;4.15;;
49458;SDS011;35354;51.296;16.924;2023-04-25T06:22:07;7.47;;;4.75;;
49458;SDS011;35354;51.296;16.924;2023-04-25T06:24:32;7.07;;;4.60;;
49458;SDS011;35354;51.296;16.924;2023-04-25T06:26:58;6.95;;;4.03;;
49458;SDS011;35354;51.296;16.924;2023-04-25T06:29:24;5.70;;;4.32;;
49458;SDS011;35354;51.296;16.924;2023-04-25T06:31:49;5.75;;;4.55;;
49458;SDS011;35354;51.296;16.924;2023-04-25T06:34:14;4.93;;;3.60;;
49458;SDS011;35354;51.296;16.924;2023-04-25T06:36:40;7.00;;;4.50;;
49458;SDS011;35354;51.296;16.924;2023-04-25T06:39:06;4.88;;;4.38;;
49458;SDS011;35354;51.296;16.924;2023-04-25T06:41:31;7.22;;;4.25;;
49458;SDS011;35354;51.296;16.924;2023-04-25T06:43:57;5.10;;;4.00;;
49458;SDS011;35354;51.296;16.924;2023-04-25T06:46:22;4.57;;;3.35;;
49458;SDS011;35354;51.296;16.924;2023-04-25T06:48:47;6.30;;;3.75;;
49458;SDS011;35354;51.296;16.924;2023-04-25T06:51:12;7.15;;;3.55;;
49458;SDS011;35354;51.296;16.924;2023-04-25T06:53:38;5.07;;;3.45;;
49458;SDS011;35354;51.296;16.924;2023-04-25T06:56:04;5.90;;;3.75;;
49458;SDS011;35354;51.296;16.924;2023-04-25T06:58:29;5.80;;;3.92;;
49458;SDS011;35354;51.296;16.924;2023-04-25T07:00:55;4.18;;;3.70;;
49458;SDS011;35354;51.296;16.924;2023-04-25T07:03:20;6.13;;;4.00;;
49458;SDS011;35354;51.296;16.924;2023-04-25T07:05:46;7.22;;;3.55;;
49458;SDS011;35354;51.296;16.924;2023-04-25T07:08:11;6.78;;;4.07;;
49458;SDS011;35354;51.296;16.924;2023-04-25T07:10:37;9.30;;;4.95;;
49458;SDS011;35354;51.296;16.924;2023-04-25T07:13:03;7.93;;;4.22;;
49458;SDS011;35354;51.296;16.924;2023-04-25T07:15:28;7.57;;;3.90;;
49458;SDS011;35354;51.296;16.924;2023-04-25T07:17:54;4.57;;;3.55;;
49458;SDS011;35354;51.296;16.924;2023-04-25T07:20:19;4.85;;;3.38;;
49458;SDS011;35354;51.296;16.924;2023-04-25T07:22:44;4.82;;;2.80;;
49458;SDS011;35354;51.296;16.924;2023-04-25T07:25:10;4.80;;;3.33;;
49458;SDS011;35354;51.296;16.924;2023-04-25T07:27:35;5.55;;;3.10;;
49458;SDS011;35354;51.296;16.924;2023-04-25T07:30:00;5.95;;;2.92;;
49458;SDS011;35354;51.296;16.924;2023-04-25T07:32:26;5.20;;;3.03;;
49458;SDS011;35354;51.296;16.924;2023-04-25T07:34:51;6.35;;;2.97;;
49458;SDS011;35354;51.296;16.924;2023-04-25T07:37:17;4.00;;;2.55;;
49458;SDS011;35354;51.296;16.924;2023-04-25T07:39:43;6.18;;;3.25;;
49458;SDS011;35354;51.296;16.924;2023-04-25T07:42:10;5.18;;;3.15;;
49458;SDS011;35354;51.296;16.924;2023-04-25T07:44:36;7.28;;;2.95;;
49458;SDS011;35354;51.296;16.924;2023-04-25T07:47:06;3.97;;;2.72;;
49458;SDS011;35354;51.296;16.924;2023-04-25T07:49:35;3.30;;;2.63;;
49458;SDS011;35354;51.296;16.924;2023-04-25T07:52:02;4.50;;;2.88;;
49458;SDS011;35354;51.296;16.924;2023-04-25T07:54:28;4.00;;;2.45;;
49458;SDS011;35354;51.296;16.924;2023-04-25T07:56:54;4.28;;;3.15;;
49458;SDS011;35354;51.296;16.924;2023-04-25T07:59:20;4.72;;;3.08;;
49458;SDS011;35354;51.296;16.924;2023-04-25T08:01:45;7.15;;;3.70;;
49458;SDS011;35354;51.296;16.924;2023-04-25T08:04:10;7.22;;;3.72;;
49458;SDS011;35354;51.296;16.924;2023-04-25T08:06:36;4.82;;;3.17;;
49458;SDS011;35354;51.296;16.924;2023-04-25T08:09:01;6.40;;;3.58;;
49458;SDS011;35354;51.296;16.924;2023-04-25T08:11:27;5.65;;;3.75;;
49458;SDS011;35354;51.296;16.924;2023-04-25T08:13:53;7.82;;;4.38;;
49458;SDS011;35354;51.296;16.924;2023-04-25T08:16:18;5.45;;;3.90;;
49458;SDS011;35354;51.296;16.924;2023-04-25T08:18:44;7.03;;;4.20;;
49458;SDS011;35354;51.296;16.924;2023-04-25T08:21:09;10.30;;;5.35;;
49458;SDS011;35354;51.296;16.924;2023-04-25T08:23:36;7.85;;;4.90;;
49458;SDS011;35354;51.296;16.924;2023-04-25T08:26:02;6.60;;;5.15;;
49458;SDS011;35354;51.296;16.924;2023-04-25T08:28:27;7.93;;;6.00;;
49458;SDS011;35354;51.296;16.924;2023-04-25T08:30:53;7.55;;;5.82;;
49458;SDS011;35354;51.296;16.924;2023-04-25T08:33:18;9.20;;;5.75;;
49458;SDS011;35354;51.296;16.924;2023-04-25T08:35:44;6.40;;;5.80;;
49458;SDS011;35354;51.296;16.924;2023-04-25T08:38:09;6.75;;;5.25;;
49458;SDS011;35354;51.296;16.924;2023-04-25T08:40:36;5.07;;;4.65;;
49458;SDS011;35354;51.296;16.924;2023-04-25T08:43:03;7.60;;;4.88;;
49458;SDS011;35354;51.296;16.924;2023-04-25T08:45:31;6.80;;;4.18;;
49458;SDS011;35354;51.296;16.924;2023-04-25T08:47:57;7.47;;;4.07;;
49458;SDS011;35354;51.296;16.924;2023-04-25T08:50:23;7.35;;;4.43;;
49458;SDS011;35354;51.296;16.924;2023-04-25T08:52:51;6.50;;;4.28;;
49458;SDS011;35354;51.296;16.924;2023-04-25T08:55:18;6.40;;;4.35;;
49458;SDS011;35354;51.296;16.924;2023-04-25T08:57:45;6.22;;;3.83;;
49458;SDS011;35354;51.296;16.924;2023-04-25T09:00:11;8.52;;;4.38;;
49458;SDS011;35354;51.296;16.924;2023-04-25T09:02:38;5.38;;;4.32;;
49458;SDS011;35354;51.296;16.924;2023-04-25T09:05:04;5.38;;;4.15;;
49458;SDS011;35354;51.296;16.924;2023-04-25T09:07:31;5.68;;;4.93;;
49458;SDS011;35354;51.296;16.924;2023-04-25T09:09:57;6.45;;;4.25;;
49458;SDS011;35354;51.296;16.924;2023-04-25T09:12:24;5.97;;;4.00;;
49458;SDS011;35354;51.296;16.924;2023-04-25T09:15:07;6.80;;;4.20;;
49458;SDS011;35354;51.296;16.924;2023-04-25T09:17:37;6.22;;;4.10;;
49458;SDS011;35354;51.296;16.924;2023-04-25T09:20:09;4.72;;;4.10;;
49458;SDS011;35354;51.296;16.924;2023-04-25T09:22:36;4.30;;;3.88;;
49458;SDS011;35354;51.296;16.924;2023-04-25T09:25:09;7.72;;;3.85;;
49458;SDS011;35354;51.296;16.924;2023-04-25T09:27:35;4.40;;;4.00;;
49458;SDS011;35354;51.296;16.924;2023-04-25T09:30:01;7.15;;;4.13;;
49458;SDS011;35354;51.296;16.924;2023-04-25T09:32:26;5.07;;;3.72;;
49458;SDS011;35354;51.296;16.924;2023-04-25T09:34:53;4.65;;;3.63;;
49458;SDS011;35354;51.296;16.924;2023-04-25T09:37:20;7.88;;;4.75;;
49458;SDS011;35354;51.296;16.924;2023-04-25T09:39:56;8.82;;;4.68;;
49458;SDS011;35354;51.296;16.924;2023-04-25T09:42:25;4.63;;;3.90;;
49458;SDS011;35354;51.296;16.924;2023-04-25T09:44:53;7.43;;;4.60;;
49458;SDS011;35354;51.296;16.924;2023-04-25T09:47:19;6.07;;;4.55;;
49458;SDS011;35354;51.296;16.924;2023-04-25T09:49:47;8.77;;;5.30;;
49458;SDS011;35354;51.296;16.924;2023-04-25T09:52:15;7.25;;;4.28;;
49458;SDS011;35354;51.296;16.924;2023-04-25T09:54:45;5.43;;;4.32;;
49458;SDS011;35354;51.296;16.924;2023-04-25T09:57:16;5.47;;;4.50;;
49458;SDS011;35354;51.296;16.924;2023-04-25T09:59:46;5.38;;;4.00;;
49458;SDS011;35354;51.296;16.924;2023-04-25T10:02:14;5.80;;;4.53;;
49458;SDS011;35354;51.296;16.924;2023-04-25T10:04:40;5.05;;;4.13;;
49458;SDS011;35354;51.296;16.924;2023-04-25T10:07:07;6.93;;;3.42;;
49458;SDS011;35354;51.296;16.924;2023-04-25T10:09:33;5.63;;;3.08;;
49458;SDS011;35354;51.296;16.924;2023-04-25T10:12:02;3.67;;;2.78;;
49458;SDS011;35354;51.296;16.924;2023-04-25T10:14:29;4.60;;;3.00;;
49458;SDS011;35354;51.296;16.924;2023-04-25T10:16:55;5.00;;;2.80;;
49458;SDS011;35354;51.296;16.924;2023-04-25T10:19:22;4.57;;;3.00;;
49458;SDS011;35354;51.296;16.924;2023-04-25T10:21:58;5.20;;;3.33;;
49458;SDS011;35354;51.296;16.924;2023-04-25T10:24:29;6.43;;;2.75;;
49458;SDS011;35354;51.296;16.924;2023-04-25T10:26:55;2.88;;;2.30;;
49458;SDS011;35354;51.296;16.924;2023-04-25T10:29:25;3.55;;;2.60;;
49458;SDS011;35354;51.296;16.924;2023-04-25T10:31:51;4.40;;;2.65;;
49458;SDS011;35354;51.296;16.924;2023-04-25T10:34:16;4.65;;;2.80;;
49458;SDS011;35354;51.296;16.924;2023-04-25T10:36:42;2.97;;;2.38;;
49458;SDS011;35354;51.296;16.924;2023-04-25T10:39:14;3.72;;;2.70;;
49458;SDS011;35354;51.296;16.924;2023-04-25T10:41:52;4.07;;;2.20;;
49458;SDS011;35354;51.296;16.924;2023-04-25T10:44:30;3.88;;;2.10;;
49458;SDS011;35354;51.296;16.924;2023-04-25T10:46:56;2.47;;;2.20;;
49458;SDS011;35354;51.296;16.924;2023-04-25T10:49:29;4.38;;;2.55;;
49458;SDS011;35354;51.296;16.924;2023-04-25T10:54:55;2.63;;;1.98;;
49458;SDS011;35354;51.296;16.924;2023-04-25T10:57:40;3.78;;;2.15;;
49458;SDS011;35354;51.296;16.924;2023-04-25T11:00:11;4.25;;;2.45;;
49458;SDS011;35354;51.296;16.924;2023-04-25T11:02:52;4.07;;;2.38;;
49458;SDS011;35354;51.296;16.924;2023-04-25T11:05:32;3.20;;;2.38;;
49458;SDS011;35354;51.296;16.924;2023-04-25T11:07:58;3.45;;;2.15;;
49458;SDS011;35354;51.296;16.924;2023-04-25T11:10:28;5.63;;;2.72;;
49458;SDS011;35354;51.296;16.924;2023-04-25T11:12:58;3.97;;;2.83;;
49458;SDS011;35354;51.296;16.924;2023-04-25T11:15:23;4.57;;;2.13;;
49458;SDS011;35354;51.296;16.924;2023-04-25T11:17:51;2.85;;;2.05;;
49458;SDS011;35354;51.296;16.924;2023-04-25T11:20:17;3.17;;;2.20;;
49458;SDS011;35354;51.296;16.924;2023-04-25T11:22:45;3.67;;;2.20;;
49458;SDS011;35354;51.296;16.924;2023-04-25T11:25:12;3.80;;;2.05;;
49458;SDS011;35354;51.296;16.924;2023-04-25T11:27:52;5.95;;;2.13;;
49458;SDS011;35354;51.296;16.924;2023-04-25T11:30:18;5.93;;;2.13;;
49458;SDS011;35354;51.296;16.924;2023-04-25T11:32:45;1.98;;;1.70;;
49458;SDS011;35354;51.296;16.924;2023-04-25T11:35:11;2.67;;;2.22;;
49458;SDS011;35354;51.296;16.924;2023-04-25T11:37:38;2.50;;;2.08;;
49458;SDS011;35354;51.296;16.924;2023-04-25T11:40:05;3.45;;;2.20;;
49458;SDS011;35354;51.296;16.924;2023-04-25T11:42:32;2.22;;;1.88;;
49458;SDS011;35354;51.296;16.924;2023-04-25T11:44:58;2.85;;;2.30;;
49458;SDS011;35354;51.296;16.924;2023-04-25T11:47:28;4.88;;;1.90;;
49458;SDS011;35354;51.296;16.924;2023-04-25T11:49:57;2.47;;;1.83;;
49458;SDS011;35354;51.296;16.924;2023-04-25T11:55:08;3.90;;;2.00;;
49458;SDS011;35354;51.296;16.924;2023-04-25T11:57:36;3.70;;;2.30;;
49458;SDS011;35354;51.296;16.924;2023-04-25T12:00:12;4.72;;;2.45;;
49458;SDS011;35354;51.296;16.924;2023-04-25T12:02:51;3.28;;;2.30;;
49458;SDS011;35354;51.296;16.924;2023-04-25T12:05:20;3.05;;;1.90;;
49458;SDS011;35354;51.296;16.924;2023-04-25T12:07:49;4.50;;;2.33;;
49458;SDS011;35354;51.296;16.924;2023-04-25T12:10:15;4.22;;;2.05;;
49458;SDS011;35354;51.296;16.924;2023-04-25T12:12:42;3.60;;;2.10;;
49458;SDS011;35354;51.296;16.924;2023-04-25T12:17:40;3.67;;;2.22;;
49458;SDS011;35354;51.296;16.924;2023-04-25T12:20:07;5.90;;;2.30;;
49458;SDS011;35354;51.296;16.924;2023-04-25T12:22:34;2.97;;;2.38;;
49458;SDS011;35354;51.296;16.924;2023-04-25T12:24:59;4.18;;;2.33;;
49458;SDS011;35354;51.296;16.924;2023-04-25T12:27:25;2.50;;;1.83;;
49458;SDS011;35354;51.296;16.924;2023-04-25T12:29:52;3.25;;;2.05;;
49458;SDS011;35354;51.296;16.924;2023-04-25T12:32:19;2.63;;;2.42;;
49458;SDS011;35354;51.296;16.924;2023-04-25T12:34:45;2.78;;;2.25;;
49458;SDS011;35354;51.296;16.924;2023-04-25T12:37:10;5.10;;;2.30;;
49458;SDS011;35354;51.296;16.924;2023-04-25T12:39:36;2.83;;;2.10;;
49458;SDS011;35354;51.296;16.924;2023-04-25T12:42:02;4.30;;;2.58;;
49458;SDS011;35354;51.296;16.924;2023-04-25T12:44:28;3.35;;;2.40;;
49458;SDS011;35354;51.296;16.924;2023-04-25T12:46:54;2.75;;;2.10;;
49458;SDS011;35354;51.296;16.924;2023-04-25T12:49:20;2.85;;;2.20;;
49458;SDS011;35354;51.296;16.924;2023-04-25T12:51:45;3.80;;;2.22;;
49458;SDS011;35354;51.296;16.924;2023-04-25T12:54:11;4.00;;;2.50;;
49458;SDS011;35354;51.296;16.924;2023-04-25T12:56:37;6.05;;;2.72;;
49458;SDS011;35354;51.296;16.924;2023-04-25T12:59:02;3.58;;;2.20;;
49458;SDS011;35354;51.296;16.924;2023-04-25T13:01:28;2.28;;;2.08;;
49458;SDS011;35354;51.296;16.924;2023-04-25T13:03:54;2.47;;;2.25;;
49458;SDS011;35354;51.296;16.924;2023-04-25T13:06:19;4.35;;;2.22;;
49458;SDS011;35354;51.296;16.924;2023-04-25T13:08:45;3.63;;;2.53;;
49458;SDS011;35354;51.296;16.924;2023-04-25T13:11:11;3.78;;;2.63;;
49458;SDS011;35354;51.296;16.924;2023-04-25T13:13:37;5.13;;;2.97;;
49458;SDS011;35354;51.296;16.924;2023-04-25T13:16:04;3.60;;;2.45;;
49458;SDS011;35354;51.296;16.924;2023-04-25T13:18:30;2.90;;;2.08;;
49458;SDS011;35354;51.296;16.924;2023-04-25T13:20:56;3.08;;;2.30;;
49458;SDS011;35354;51.296;16.924;2023-04-25T13:23:22;4.97;;;2.50;;
49458;SDS011;35354;51.296;16.924;2023-04-25T13:25:48;4.15;;;2.17;;
49458;SDS011;35354;51.296;16.924;2023-04-25T13:28:14;4.50;;;2.70;;
49458;SDS011;35354;51.296;16.924;2023-04-25T13:30:40;3.80;;;2.67;;
49458;SDS011;35354;51.296;16.924;2023-04-25T13:33:05;8.65;;;2.80;;
49458;SDS011;35354;51.296;16.924;2023-04-25T13:35:31;3.38;;;3.08;;
49458;SDS011;35354;51.296;16.924;2023-04-25T13:37:58;4.57;;;3.58;;
49458;SDS011;35354;51.296;16.924;2023-04-25T13:40:23;5.18;;;4.22;;
49458;SDS011;35354;51.296;16.924;2023-04-25T13:42:49;7.15;;;4.63;;
49458;SDS011;35354;51.296;16.924;2023-04-25T13:45:14;3.72;;;3.13;;
49458;SDS011;35354;51.296;16.924;2023-04-25T13:47:39;5.50;;;3.25;;
49458;SDS011;35354;51.296;16.924;2023-04-25T13:50:05;4.60;;;3.35;;
49458;SDS011;35354;51.296;16.924;2023-04-25T13:52:32;4.00;;;3.20;;
49458;SDS011;35354;51.296;16.924;2023-04-25T13:54:57;4.93;;;2.42;;
49458;SDS011;35354;51.296;16.924;2023-04-25T13:57:23;3.28;;;2.70;;
49458;SDS011;35354;51.296;16.924;2023-04-25T13:59:48;3.95;;;2.58;;
49458;SDS011;35354;51.296;16.924;2023-04-25T14:02:15;3.63;;;2.78;;
49458;SDS011;35354;51.296;16.924;2023-04-25T14:04:40;4.10;;;2.47;;
49458;SDS011;35354;51.296;16.924;2023-04-25T14:07:06;4.97;;;2.65;;
49458;SDS011;35354;51.296;16.924;2023-04-25T14:09:31;4.22;;;2.70;;
49458;SDS011;35354;51.296;16.924;2023-04-25T14:11:57;4.72;;;3.03;;
49458;SDS011;35354;51.296;16.924;2023-04-25T14:14:22;4.47;;;2.67;;
49458;SDS011;35354;51.296;16.924;2023-04-25T14:16:48;3.60;;;2.53;;
49458;SDS011;35354;51.296;16.924;2023-04-25T14:19:15;4.68;;;2.88;;
49458;SDS011;35354;51.296;16.924;2023-04-25T14:21:43;5.22;;;3.22;;
49458;SDS011;35354;51.296;16.924;2023-04-25T14:24:09;6.75;;;3.70;;
49458;SDS011;35354;51.296;16.924;2023-04-25T14:26:36;7.72;;;4.80;;
49458;SDS011;35354;51.296;16.924;2023-04-25T14:29:02;6.68;;;3.35;;
49458;SDS011;35354;51.296;16.924;2023-04-25T14:31:28;5.60;;;3.90;;
49458;SDS011;35354;51.296;16.924;2023-04-25T14:33:53;5.68;;;3.35;;
49458;SDS011;35354;51.296;16.924;2023-04-25T14:36:19;4.75;;;3.20;;